Terminal Aerodrome Forecast
Issued by NWS

Home | Current Version | Previous Version | Text Only | Print | Product List | Glossary Off
Versions: 1 2 3 4 5 6 7 8 9 10 11 12 13 14 15 16 17 18

000
FTUS43 KMPX 310520
TAFAXN
TAF
KAXN 310520Z 3106/0106 18012KT 6SM BR SKC
     FM311500 20018G27KT P6SM SCT250
     FM312300 21007KT P6SM SCT120 BKN200=

USA.gov is the U.S. government's official web portal to all federal, state and local government web resources and services.